createdAt,value
2022-09-04T00:02:27.309Z,4.30
2022-09-04T00:04:41.384Z,3.83
2022-09-04T00:07:21.501Z,4.03
2022-09-04T00:10:13.822Z,3.58
2022-09-04T00:12:28.548Z,4.20
2022-09-04T00:14:41.601Z,3.80
2022-09-04T00:17:03.968Z,4.03
2022-09-04T00:19:36.198Z,3.87
2022-09-04T00:22:00.136Z,3.40
2022-09-04T00:24:13.181Z,3.80
2022-09-04T00:26:54.430Z,4.17
2022-09-04T00:29:04.134Z,3.80
2022-09-04T00:31:37.194Z,4.03
2022-09-04T00:34:27.179Z,3.50
2022-09-04T00:36:30.715Z,4.40
2022-09-04T00:38:49.925Z,3.93
2022-09-04T00:41:23.031Z,3.30
2022-09-04T00:43:56.297Z,3.00
2022-09-04T00:46:17.254Z,4.10
2022-09-04T00:49:05.202Z,3.60
2022-09-04T00:51:20.686Z,3.70
2022-09-04T00:53:55.777Z,3.57
2022-09-04T00:57:05.364Z,3.50
2022-09-04T01:00:16.575Z,4.10
2022-09-04T01:02:37.697Z,3.90
2022-09-04T01:05:19.549Z,3.60
2022-09-04T01:07:36.712Z,3.80
2022-09-04T01:09:54.473Z,3.40
2022-09-04T01:12:26.764Z,3.20
2022-09-04T01:14:41.356Z,4.10
2022-09-04T01:16:51.542Z,3.57
2022-09-04T01:19:03.363Z,3.10
2022-09-04T01:21:51.809Z,3.67
2022-09-04T01:25:02.056Z,3.80
2022-09-04T01:27:22.970Z,3.47
2022-09-04T01:29:53.300Z,3.90
2022-09-04T01:32:10.265Z,3.47
2022-09-04T01:34:35.379Z,3.30
2022-09-04T01:37:12.210Z,3.70
2022-09-04T01:39:19.142Z,3.73
2022-09-04T01:41:27.771Z,3.65
2022-09-04T01:43:31.798Z,3.37
2022-09-04T01:45:59.803Z,3.45
2022-09-04T01:48:08.098Z,4.10
2022-09-04T01:50:20.601Z,3.60
2022-09-04T01:52:44.610Z,3.53
2022-09-04T01:55:00.222Z,3.30
2022-09-04T01:57:16.175Z,3.53
2022-09-04T01:59:37.257Z,3.07
2022-09-04T02:01:58.754Z,3.17
2022-09-04T02:04:29.486Z,3.93
2022-09-04T02:06:47.344Z,3.57
2022-09-04T02:09:29.743Z,3.20
2022-09-04T02:11:32.657Z,3.53
2022-09-04T02:13:49.990Z,3.80
2022-09-04T02:20:27.712Z,3.90
2022-09-04T02:22:54.182Z,3.23
2022-09-04T02:25:54.071Z,3.10
2022-09-04T02:28:26.862Z,3.30
2022-09-04T02:30:39.568Z,3.90
2022-09-04T02:33:28.362Z,3.03
2022-09-04T02:35:47.372Z,3.33
2022-09-04T02:38:18.465Z,3.60
2022-09-04T02:40:52.275Z,3.30
2022-09-04T02:43:21.115Z,3.63
2022-09-04T02:45:42.161Z,3.47
2022-09-04T02:48:24.658Z,3.47
2022-09-04T02:50:54.787Z,2.93
2022-09-04T02:53:26.880Z,3.70
2022-09-04T02:55:36.143Z,3.40
2022-09-04T02:58:14.998Z,3.80
2022-09-04T03:00:21.857Z,2.87
2022-09-04T03:02:45.733Z,2.90
2022-09-04T03:05:08.283Z,3.72
2022-09-04T03:07:33.633Z,3.40
2022-09-04T03:09:52.568Z,3.43
2022-09-04T03:12:29.653Z,3.30
2022-09-04T03:15:09.604Z,3.95
2022-09-04T03:17:23.433Z,3.00
2022-09-04T03:19:46.530Z,3.50
2022-09-04T03:22:16.804Z,3.37
2022-09-04T03:24:49.954Z,2.90
2022-09-04T03:27:02.071Z,3.57
2022-09-04T03:29:16.273Z,3.65
2022-09-04T03:31:33.237Z,3.43
2022-09-04T03:33:51.723Z,3.50
2022-09-04T03:36:11.386Z,3.70
2022-09-04T03:38:45.923Z,3.67
2022-09-04T03:41:30.240Z,3.58
2022-09-04T03:43:48.138Z,3.40
2022-09-04T03:46:11.294Z,3.40
2022-09-04T03:48:40.107Z,3.47
2022-09-04T03:51:07.479Z,3.33
2022-09-04T03:53:43.554Z,3.30
2022-09-04T03:56:03.978Z,3.33
2022-09-04T03:58:26.259Z,3.85
2022-09-04T04:00:49.003Z,4.10
2022-09-04T04:03:30.253Z,3.80
2022-09-04T04:05:52.957Z,3.50
2022-09-04T04:08:48.347Z,4.60
2022-09-04T04:11:16.793Z,3.47
2022-09-04T04:13:34.455Z,3.58
2022-09-04T04:16:12.173Z,4.17
2022-09-04T04:19:00.963Z,3.58
2022-09-04T04:21:33.957Z,4.67
2022-09-04T04:24:15.229Z,3.47
2022-09-04T04:26:38.428Z,3.30
2022-09-04T04:29:02.927Z,3.63
2022-09-04T04:31:24.952Z,4.70
2022-09-04T04:33:36.913Z,3.67
2022-09-04T04:36:07.030Z,3.77
2022-09-04T04:38:20.135Z,3.30
2022-09-04T04:40:45.654Z,3.13
2022-09-04T04:43:14.991Z,3.87
2022-09-04T04:45:42.102Z,3.30
2022-09-04T04:48:20.031Z,3.70
2022-09-04T04:50:37.497Z,3.73
2022-09-04T04:52:53.568Z,3.50
2022-09-04T04:55:22.261Z,3.40
2022-09-04T04:57:53.488Z,3.53
2022-09-04T05:00:43.301Z,3.50
2022-09-04T05:03:10.971Z,3.20
2022-09-04T05:05:47.470Z,3.80
2022-09-04T05:08:07.667Z,3.70
2022-09-04T05:10:35.786Z,3.53
2022-09-04T05:13:17.082Z,3.53
2022-09-04T05:16:09.409Z,3.70
2022-09-04T05:18:44.487Z,3.20
2022-09-04T05:21:21.805Z,3.20
2022-09-04T05:23:44.308Z,4.07
2022-09-04T05:26:08.017Z,3.60
2022-09-04T05:28:24.275Z,3.37
2022-09-04T05:31:09.498Z,3.60
2022-09-04T05:33:55.404Z,3.60
2022-09-04T05:36:40.478Z,3.47
2022-09-04T05:39:04.280Z,3.63
2022-09-04T05:41:44.350Z,3.53
2022-09-04T05:43:59.866Z,3.47
2022-09-04T05:46:39.226Z,4.23
2022-09-04T05:49:03.664Z,2.97
2022-09-04T05:51:18.640Z,3.60
2022-09-04T05:53:45.255Z,3.60
2022-09-04T05:56:13.147Z,3.10
2022-09-04T05:58:53.318Z,3.87
2022-09-04T06:01:23.677Z,3.30
2022-09-04T06:04:06.424Z,3.13
2022-09-04T06:06:43.935Z,4.10
2022-09-04T06:09:06.581Z,3.13
2022-09-04T06:11:36.646Z,3.70
2022-09-04T06:13:58.491Z,3.33
2022-09-04T06:16:38.864Z,4.47
2022-09-04T06:19:27.530Z,3.40
2022-09-04T06:22:19.334Z,4.00
2022-09-04T06:25:03.078Z,3.90
2022-09-04T06:27:45.741Z,3.80
2022-09-04T06:30:14.798Z,3.47
2022-09-04T06:32:56.121Z,4.10
2022-09-04T06:35:17.711Z,3.83
2022-09-04T06:37:45.490Z,3.40
2022-09-04T06:40:09.710Z,4.03
2022-09-04T06:42:45.402Z,3.90
2022-09-04T06:45:48.042Z,3.70
2022-09-04T06:48:09.383Z,3.80
2022-09-04T06:50:53.873Z,3.70
2022-09-04T06:53:36.385Z,4.40
2022-09-04T06:56:05.168Z,4.40
2022-09-04T06:58:40.331Z,4.23
2022-09-04T07:01:48.242Z,3.53
2022-09-04T07:04:31.198Z,3.97
2022-09-04T07:06:50.336Z,4.30
2022-09-04T07:09:17.401Z,3.60
2022-09-04T07:12:20.273Z,4.23
2022-09-04T07:15:05.157Z,4.10
2022-09-04T07:17:37.779Z,4.60
2022-09-04T07:19:46.071Z,4.60
2022-09-04T07:22:31.468Z,4.70
2022-09-04T07:25:17.272Z,4.15
2022-09-04T07:28:00.510Z,4.03
2022-09-04T07:30:10.175Z,3.77
2022-09-04T07:32:34.624Z,5.07
2022-09-04T07:34:45.077Z,4.53
2022-09-04T07:37:06.929Z,4.03
2022-09-04T07:39:23.843Z,4.13
2022-09-04T07:42:05.832Z,3.87
2022-09-04T07:44:43.877Z,4.30
2022-09-04T07:47:00.257Z,5.43
2022-09-04T07:49:27.975Z,4.83
2022-09-04T07:52:03.643Z,5.03
2022-09-04T07:54:36.327Z,4.80
2022-09-04T07:56:49.439Z,4.60
2022-09-04T07:59:31.986Z,4.90
2022-09-04T08:02:22.123Z,4.77
2022-09-04T08:04:58.655Z,5.17
2022-09-04T08:07:15.437Z,4.60
2022-09-04T08:09:36.202Z,5.60
2022-09-04T08:12:53.428Z,5.93
2022-09-04T08:15:10.294Z,4.90
2022-09-04T08:18:04.069Z,5.73
2022-09-04T08:20:15.285Z,5.60
2022-09-04T08:23:20.565Z,4.70
2022-09-04T08:25:50.066Z,5.93
2022-09-04T08:28:10.525Z,5.40
2022-09-04T08:30:15.038Z,6.57
2022-09-04T08:32:41.558Z,5.87
2022-09-04T08:35:41.807Z,6.60
2022-09-04T08:38:47.899Z,5.30
2022-09-04T08:41:31.705Z,5.97
2022-09-04T08:44:01.855Z,6.07
2022-09-04T08:46:49.489Z,5.40
2022-09-04T08:49:57.143Z,5.60
2022-09-04T08:52:30.513Z,6.20
2022-09-04T08:55:11.557Z,5.20
2022-09-04T08:57:41.835Z,5.33
2022-09-04T09:00:11.637Z,5.73
2022-09-04T09:02:50.909Z,5.93
2022-09-04T09:05:35.835Z,5.77
2022-09-04T09:08:05.729Z,5.20
2022-09-04T09:11:21.759Z,5.60
2022-09-04T09:14:05.784Z,5.03
2022-09-04T09:16:43.094Z,5.37
2022-09-04T09:19:33.901Z,5.27
2022-09-04T09:22:13.663Z,5.40
2022-09-04T09:25:03.637Z,5.00
2022-09-04T09:27:42.152Z,5.20
2022-09-04T09:30:09.761Z,5.00
2022-09-04T09:32:43.413Z,4.83
2022-09-04T09:35:47.890Z,6.20
2022-09-04T09:38:41.843Z,4.83
2022-09-04T09:40:58.014Z,4.80
2022-09-04T09:43:15.921Z,4.20
2022-09-04T09:46:01.398Z,5.27
2022-09-04T09:48:25.338Z,4.60
2022-09-04T09:51:06.460Z,4.43
2022-09-04T09:53:36.459Z,4.30
2022-09-04T09:56:21.053Z,3.80
2022-09-04T09:58:50.825Z,3.43
2022-09-04T10:01:36.583Z,4.37
2022-09-04T10:03:39.215Z,5.00
2022-09-04T10:06:52.964Z,4.33
2022-09-04T10:09:29.039Z,4.17
2022-09-04T10:12:01.327Z,4.10
2022-09-04T10:14:53.785Z,4.70
2022-09-04T10:17:41.658Z,4.30
2022-09-04T10:20:28.055Z,3.90
2022-09-04T10:22:49.207Z,3.65
2022-09-04T10:25:21.937Z,3.90
2022-09-04T10:28:00.282Z,3.10
2022-09-04T10:30:23.069Z,3.30
2022-09-04T10:32:34.123Z,3.40
2022-09-04T10:35:40.382Z,3.17
2022-09-04T10:38:04.228Z,3.30
2022-09-04T10:40:40.913Z,3.33
2022-09-04T10:43:42.028Z,3.60
2022-09-04T10:45:55.025Z,3.80
2022-09-04T10:48:49.246Z,3.70
2022-09-04T10:51:22.938Z,3.43
2022-09-04T10:54:16.851Z,3.80
2022-09-04T10:56:35.982Z,3.33
2022-09-04T10:59:03.617Z,3.20
2022-09-04T11:01:13.679Z,3.93
2022-09-04T11:04:02.083Z,3.20
2022-09-04T11:06:25.979Z,3.43
2022-09-04T11:08:54.820Z,3.60
2022-09-04T11:11:45.324Z,2.70
2022-09-04T11:14:39.985Z,3.07
2022-09-04T11:17:28.432Z,3.20
2022-09-04T11:20:23.730Z,3.30
2022-09-04T11:22:59.728Z,2.87
2022-09-04T11:25:46.809Z,3.33
2022-09-04T11:28:05.691Z,3.10
2022-09-04T11:30:21.810Z,2.70
2022-09-04T11:32:51.913Z,3.23
2022-09-04T11:35:41.726Z,3.00
2022-09-04T11:38:05.987Z,2.73
2022-09-04T11:40:38.990Z,3.30
2022-09-04T11:43:30.279Z,2.80
2022-09-04T11:46:15.777Z,2.57
2022-09-04T11:49:01.242Z,2.87
2022-09-04T11:51:42.053Z,3.07
2022-09-04T11:53:59.376Z,2.90
2022-09-04T11:56:16.734Z,2.67
2022-09-04T11:59:10.348Z,2.13
2022-09-04T12:01:57.768Z,2.73
2022-09-04T12:08:29.189Z,2.80
2022-09-04T12:11:09.266Z,3.10
2022-09-04T12:13:47.157Z,2.67
2022-09-04T12:16:11.505Z,2.70
2022-09-04T12:18:54.896Z,2.40
2022-09-04T12:21:32.315Z,2.78
2022-09-04T12:24:03.199Z,2.43
2022-09-04T12:26:27.022Z,2.80
2022-09-04T12:29:18.241Z,2.50
2022-09-04T12:31:55.400Z,2.63
2022-09-04T12:34:28.396Z,2.47
2022-09-04T12:36:59.465Z,2.70
2022-09-04T12:39:43.116Z,2.60
2022-09-04T12:42:08.369Z,2.70
2022-09-04T12:44:22.895Z,2.70
2022-09-04T12:46:35.796Z,2.93
2022-09-04T12:49:17.911Z,2.50
2022-09-04T12:51:26.642Z,2.63
2022-09-04T12:53:54.733Z,2.83
2022-09-04T12:56:27.919Z,2.40
2022-09-04T12:58:52.411Z,2.40
2022-09-04T13:01:10.638Z,2.43
2022-09-04T13:03:28.169Z,2.42
2022-09-04T13:05:53.093Z,2.70
2022-09-04T13:08:04.686Z,2.47
2022-09-04T13:10:39.386Z,2.27
2022-09-04T13:13:28.962Z,2.60
2022-09-04T13:16:02.821Z,2.50
2022-09-04T13:18:25.779Z,2.60
2022-09-04T13:20:49.297Z,2.90
2022-09-04T13:23:27.201Z,2.50
2022-09-04T13:25:35.659Z,2.30
2022-09-04T13:28:17.270Z,2.50
2022-09-04T13:30:24.100Z,2.53
2022-09-04T13:32:47.349Z,2.30
2022-09-04T13:35:31.519Z,2.13
2022-09-04T13:37:51.959Z,2.47
2022-09-04T13:40:14.398Z,2.40
2022-09-04T13:43:01.075Z,2.30
2022-09-04T13:45:09.763Z,2.50
2022-09-04T13:47:26.024Z,2.30
2022-09-04T13:49:56.409Z,2.47
2022-09-04T13:52:37.210Z,2.23
2022-09-04T13:54:44.134Z,2.33
2022-09-04T13:56:55.136Z,2.17
2022-09-04T13:59:08.708Z,2.17
2022-09-04T14:01:20.618Z,2.23
2022-09-04T14:03:52.786Z,2.50
2022-09-04T14:05:57.121Z,2.37
2022-09-04T14:08:08.825Z,2.30
2022-09-04T14:10:22.722Z,3.17
2022-09-04T14:12:54.417Z,2.20
2022-09-04T14:15:28.568Z,2.70
2022-09-04T14:18:04.421Z,2.58
2022-09-04T14:20:22.329Z,3.00
2022-09-04T14:22:55.872Z,2.40
2022-09-04T14:25:31.308Z,2.20
2022-09-04T14:27:57.618Z,2.10
2022-09-04T14:30:09.198Z,2.17
2022-09-04T14:32:45.158Z,2.73
2022-09-04T14:35:30.891Z,2.50
2022-09-04T14:38:17.087Z,1.83
2022-09-04T14:40:34.336Z,2.40
2022-09-04T14:43:03.706Z,2.53
2022-09-04T14:45:41.730Z,2.25
2022-09-04T14:48:05.969Z,2.57
2022-09-04T14:50:14.709Z,3.10
2022-09-04T14:52:28.650Z,2.60
2022-09-04T14:54:37.662Z,2.80
2022-09-04T14:56:48.732Z,2.38
2022-09-04T14:59:18.585Z,2.60
2022-09-04T15:01:26.535Z,2.33
2022-09-04T15:03:40.255Z,2.53
2022-09-04T15:06:00.808Z,2.33
2022-09-04T15:08:10.946Z,2.67
2022-09-04T15:10:50.757Z,3.37
2022-09-04T15:13:00.292Z,2.67
2022-09-04T15:15:46.674Z,2.53
2022-09-04T15:18:06.611Z,2.37
2022-09-04T15:20:24.540Z,2.40
2022-09-04T15:22:45.735Z,2.70
2022-09-04T15:25:47.941Z,2.87
2022-09-04T15:27:58.967Z,3.00
2022-09-04T15:30:22.153Z,3.10
2022-09-04T15:32:29.085Z,3.00
2022-09-04T15:34:32.254Z,2.80
2022-09-04T15:36:37.844Z,2.30
2022-09-04T15:38:53.397Z,2.30
2022-09-04T15:41:15.684Z,2.70
2022-09-04T15:43:35.602Z,3.07
2022-09-04T15:46:00.901Z,2.90
2022-09-04T15:48:43.899Z,3.00
2022-09-04T15:51:16.348Z,2.90
2022-09-04T15:53:32.462Z,3.37
2022-09-04T15:55:38.867Z,2.90
2022-09-04T15:58:08.728Z,2.70
2022-09-04T16:00:15.737Z,2.70
2022-09-04T16:02:36.562Z,2.60
2022-09-04T16:05:19.488Z,2.70
2022-09-04T16:07:40.387Z,2.80
2022-09-04T16:09:54.422Z,2.60
2022-09-04T16:12:17.241Z,3.03
2022-09-04T16:14:28.363Z,2.53
2022-09-04T16:17:00.172Z,2.50
2022-09-04T16:19:32.238Z,2.80
2022-09-04T16:22:01.773Z,2.50
2022-09-04T16:24:14.212Z,3.23
2022-09-04T16:26:27.385Z,3.03
2022-09-04T16:28:36.107Z,3.17
2022-09-04T16:31:00.677Z,2.80
2022-09-04T16:33:10.184Z,2.80
2022-09-04T16:35:24.186Z,2.90
2022-09-04T16:38:05.439Z,2.93
2022-09-04T16:40:27.095Z,3.20
2022-09-04T16:42:55.580Z,2.90
2022-09-04T16:45:17.314Z,2.70
2022-09-04T16:47:21.475Z,3.13
2022-09-04T16:49:47.265Z,3.03
2022-09-04T16:52:01.459Z,2.83
2022-09-04T16:54:20.607Z,2.40
2022-09-04T16:56:50.221Z,2.60
2022-09-04T16:59:39.475Z,3.00
2022-09-04T17:01:51.875Z,5.00
2022-09-04T17:04:29.333Z,6.20
2022-09-04T17:06:42.973Z,6.70
2022-09-04T17:08:58.188Z,2.83
2022-09-04T17:11:29.955Z,2.90
2022-09-04T17:13:45.743Z,4.13
2022-09-04T17:16:04.990Z,3.10
2022-09-04T17:18:09.649Z,3.20
2022-09-04T17:23:08.798Z,3.80
2022-09-04T17:28:58.086Z,3.20
2022-09-04T17:29:16.881Z,5.20
2022-09-04T17:29:41.688Z,4.00
2022-09-04T17:31:48.682Z,9.43
2022-09-04T17:40:41.302Z,10.03
2022-09-04T17:40:53.289Z,16.00
2022-09-04T17:40:55.857Z,16.70
2022-09-04T17:42:29.823Z,6.83
2022-09-04T17:44:48.786Z,4.10
2022-09-04T17:47:34.746Z,3.30
2022-09-04T17:49:46.411Z,3.40
2022-09-04T17:51:57.957Z,2.93
2022-09-04T17:54:11.187Z,3.60
2022-09-04T17:56:43.852Z,2.97
2022-09-04T17:59:27.539Z,3.17
2022-09-04T18:01:51.431Z,3.37
2022-09-04T18:04:20.500Z,2.60
2022-09-04T18:06:27.195Z,2.60
2022-09-04T18:09:00.772Z,3.30
2022-09-04T18:11:33.208Z,3.60
2022-09-04T18:14:34.591Z,2.97
2022-09-04T18:17:31.292Z,3.00
2022-09-04T18:19:47.873Z,3.03
2022-09-04T18:22:25.754Z,2.90
2022-09-04T18:24:43.791Z,3.40
2022-09-04T18:27:14.745Z,3.70
2022-09-04T18:30:40.170Z,3.00
2022-09-04T18:37:09.140Z,3.30
2022-09-04T18:37:22.647Z,2.70
2022-09-04T18:37:44.036Z,3.10
2022-09-04T18:39:50.916Z,2.95
2022-09-04T18:48:58.979Z,3.70
2022-09-04T18:50:28.539Z,2.63
2022-09-04T18:50:44.116Z,3.10
2022-09-04T18:50:51.326Z,3.10
2022-09-04T18:52:30.569Z,2.70
2022-09-04T18:55:14.413Z,3.20
2022-09-04T18:57:49.131Z,2.80
2022-09-04T19:00:08.156Z,2.80
2022-09-04T19:02:29.237Z,3.07
2022-09-04T19:04:43.509Z,3.57
2022-09-04T19:08:04.359Z,3.17
2022-09-04T19:10:33.034Z,3.00
2022-09-04T19:12:53.954Z,2.92
2022-09-04T19:15:00.331Z,3.60
2022-09-04T19:17:15.216Z,3.50
2022-09-04T19:19:31.664Z,3.50
2022-09-04T19:21:57.852Z,3.53
2022-09-04T19:24:26.026Z,3.80
2022-09-04T19:28:07.643Z,2.90
2022-09-04T19:30:23.610Z,3.03
2022-09-04T19:32:41.086Z,3.03
2022-09-04T19:34:59.014Z,3.57
2022-09-04T19:40:16.579Z,3.57
2022-09-04T19:45:53.855Z,3.55
2022-09-04T19:46:19.486Z,3.70
2022-09-04T19:46:26.069Z,3.80
2022-09-04T19:48:47.169Z,3.17
2022-09-04T19:53:31.576Z,3.40
2022-09-04T19:54:44.555Z,3.47
2022-09-04T19:57:32.885Z,3.00
2022-09-04T19:59:46.019Z,3.50
2022-09-04T20:01:58.140Z,3.75
2022-09-04T20:04:43.141Z,3.57
2022-09-04T20:06:54.670Z,3.77
2022-09-04T20:09:16.900Z,3.37
2022-09-04T20:11:35.207Z,4.07
2022-09-04T20:13:54.610Z,3.20
2022-09-04T20:16:22.607Z,3.93
2022-09-04T20:19:24.411Z,3.80
2022-09-04T20:21:48.476Z,3.33
2022-09-04T20:24:05.088Z,3.63
2022-09-04T20:26:32.482Z,3.83
2022-09-04T20:28:48.374Z,4.20
2022-09-04T20:31:36.651Z,3.30
2022-09-04T20:33:42.193Z,3.70
2022-09-04T20:36:10.475Z,3.77
2022-09-04T20:38:52.443Z,3.40
2022-09-04T20:41:08.498Z,3.60
2022-09-04T20:43:33.852Z,3.70
2022-09-04T20:50:12.387Z,3.88
2022-09-04T20:52:52.038Z,4.10
2022-09-04T20:52:52.983Z,3.70
2022-09-04T20:54:29.288Z,4.20
2022-09-04T21:00:25.578Z,4.00
2022-09-04T21:03:13.349Z,3.10
2022-09-04T21:03:19.965Z,3.80
2022-09-04T21:05:42.508Z,4.23
2022-09-04T21:08:16.798Z,3.90
2022-09-04T21:10:40.985Z,3.60
2022-09-04T21:13:14.751Z,3.70
2022-09-04T21:15:52.864Z,4.00
2022-09-04T21:18:18.300Z,3.70
2022-09-04T21:21:00.300Z,4.00
2022-09-04T21:23:28.097Z,4.50
2022-09-04T21:26:15.552Z,4.47
2022-09-04T21:29:14.773Z,3.50
2022-09-04T21:31:44.042Z,4.50
2022-09-04T21:34:54.905Z,4.07
2022-09-04T21:37:16.179Z,3.97
2022-09-04T21:39:26.597Z,4.07
2022-09-04T21:41:46.317Z,3.77
2022-09-04T21:44:17.189Z,3.80
2022-09-04T21:46:56.635Z,3.83
2022-09-04T21:49:09.179Z,4.00
2022-09-04T21:51:45.493Z,3.67
2022-09-04T21:53:55.355Z,3.70
2022-09-04T22:02:25.115Z,3.93
2022-09-04T22:02:43.088Z,4.17
2022-09-04T22:02:52.664Z,3.97
2022-09-04T22:05:11.480Z,3.70
2022-09-04T22:11:23.443Z,4.10
2022-09-04T22:13:39.193Z,3.70
2022-09-04T22:13:49.165Z,4.13
2022-09-04T22:16:00.472Z,3.93
2022-09-04T22:18:45.304Z,3.90
2022-09-04T22:21:40.535Z,4.40
2022-09-04T22:24:36.325Z,3.40
2022-09-04T22:26:53.867Z,4.23
2022-09-04T22:29:58.280Z,4.40
2022-09-04T22:32:47.479Z,4.22
2022-09-04T22:35:35.914Z,4.40
2022-09-04T22:38:18.198Z,4.10
2022-09-04T22:40:56.393Z,4.45
2022-09-04T22:43:15.959Z,3.97
2022-09-04T22:45:41.501Z,4.95
2022-09-04T22:49:11.891Z,4.50
2022-09-04T22:51:53.145Z,4.40
2022-09-04T22:54:17.261Z,4.70
2022-09-04T22:56:40.537Z,5.17
2022-09-04T22:59:26.034Z,5.30
2022-09-04T23:03:02.337Z,5.20
2022-09-04T23:05:12.861Z,4.87
2022-09-04T23:13:47.052Z,4.22
2022-09-04T23:13:49.326Z,4.83
2022-09-04T23:13:56.228Z,5.30
2022-09-04T23:16:28.241Z,5.13
2022-09-04T23:26:39.389Z,5.03
2022-09-04T23:26:46.820Z,4.20
2022-09-04T23:26:53.430Z,5.33
2022-09-04T23:27:28.590Z,4.80
2022-09-04T23:30:23.093Z,5.13
2022-09-04T23:33:27.104Z,5.20
2022-09-04T23:36:01.380Z,5.20
2022-09-04T23:38:06.870Z,5.70
2022-09-04T23:41:09.024Z,5.20
2022-09-04T23:43:19.393Z,5.10
2022-09-04T23:45:36.945Z,5.27
2022-09-04T23:48:25.053Z,5.40
2022-09-04T23:50:38.245Z,4.85
2022-09-04T23:53:05.135Z,4.70
2022-09-04T23:55:45.048Z,5.20
2022-09-04T23:58:57.432Z,4.57
